Terminal Aerodrome Forecast
Issued by NWS Cleveland, OH

Home | Current Version | Previous Version | Graphics & Text | Print | Product List | Glossary On
Versions: 1 2 3 4 5 6 7 8 9 10 11 12
000
FTUS41 KCLE 220500
TAFTOL
TAF
KTOL 220537Z 2206/2306 25010KT P6SM BKN070
     FM221000 25012G20KT P6SM OVC050
     FM221500 27020G30KT P6SM OVC040=

USA.gov is the U.S. government's official web portal to all federal, state and local government web resources and services.